createdAt,value
2019-01-04T00:01:41.134Z,1.44
2019-01-04T00:06:46.768Z,1.47
2019-01-04T00:11:58.476Z,1.45
2019-01-04T00:17:03.879Z,1.47
2019-01-04T00:22:22.696Z,1.43
2019-01-04T00:27:27.823Z,1.42
2019-01-04T00:32:57.080Z,1.43
2019-01-04T00:38:03.084Z,1.47
2019-01-04T00:43:08.200Z,1.49
2019-01-04T00:48:13.489Z,1.50
2019-01-04T00:53:18.864Z,1.51
2019-01-04T00:59:03.740Z,1.58
2019-01-04T01:04:53.074Z,1.62
2019-01-04T01:10:33.652Z,1.56
2019-01-04T01:16:08.504Z,1.55
2019-01-04T01:21:50.600Z,1.56
2019-01-04T01:27:54.390Z,1.59
2019-01-04T01:33:33.810Z,1.55
2019-01-04T01:39:17.751Z,1.50
2019-01-04T01:44:54.562Z,1.50
2019-01-04T01:50:58.710Z,1.52
2019-01-04T01:56:04.320Z,1.54
2019-01-04T02:01:09.414Z,1.53
2019-01-04T02:06:14.490Z,1.59
2019-01-04T02:11:20.237Z,1.70
2019-01-04T02:16:25.593Z,1.64
2019-01-04T02:21:30.729Z,1.58
2019-01-04T02:26:35.831Z,1.69
2019-01-04T02:31:41.426Z,1.62
2019-01-04T02:36:46.874Z,1.57
2019-01-04T02:41:52.140Z,1.58
2019-01-04T02:46:57.242Z,1.60
2019-01-04T02:52:02.739Z,1.67
2019-01-04T02:57:07.792Z,1.55
2019-01-04T03:02:12.842Z,1.55
2019-01-04T03:07:18.307Z,1.56
2019-01-04T03:12:23.344Z,1.57
2019-01-04T03:17:28.453Z,1.47
2019-01-04T03:22:33.532Z,1.37
2019-01-04T03:27:38.739Z,1.42
2019-01-04T03:32:43.759Z,1.34
2019-01-04T03:37:48.742Z,1.33
2019-01-04T03:42:53.787Z,1.33
2019-01-04T03:48:01.099Z,1.34
2019-01-04T03:53:06.203Z,1.40
2019-01-04T03:58:12.625Z,1.43
2019-01-04T04:03:17.735Z,1.37
2019-01-04T04:08:22.850Z,1.41
2019-01-04T04:13:28.172Z,1.46
2019-01-04T04:18:33.218Z,1.50
2019-01-04T04:23:38.365Z,1.49
2019-01-04T04:28:44.185Z,1.50
2019-01-04T04:33:49.221Z,1.45
2019-01-04T04:38:54.359Z,1.52
2019-01-04T04:43:59.471Z,1.51
2019-01-04T04:49:04.528Z,1.46
2019-01-04T04:54:09.691Z,1.44
2019-01-04T04:59:14.851Z,1.47
2019-01-04T05:04:20.613Z,1.54
2019-01-04T05:09:25.657Z,1.67
2019-01-04T05:14:30.804Z,1.62
2019-01-04T05:19:37.149Z,1.60
2019-01-04T05:24:42.195Z,1.58
2019-01-04T05:29:47.222Z,1.57
2019-01-04T05:34:52.716Z,1.61
2019-01-04T05:39:57.719Z,1.60
2019-01-04T05:45:02.767Z,1.59
2019-01-04T05:50:08.204Z,1.57
2019-01-04T05:55:13.391Z,1.57
2019-01-04T06:00:18.453Z,1.59
2019-01-04T06:05:24.427Z,1.66
2019-01-04T06:10:29.530Z,1.67
2019-01-04T06:15:34.544Z,1.71
2019-01-04T06:20:40.896Z,1.77
2019-01-04T06:25:46.053Z,1.77
2019-01-04T06:30:51.343Z,1.83
2019-01-04T06:36:00.602Z,1.79
2019-01-04T06:41:05.954Z,1.79
2019-01-04T06:46:13.353Z,1.83
2019-01-04T06:51:18.877Z,1.79
2019-01-04T06:56:24.417Z,1.78
2019-01-04T07:01:29.605Z,1.76
2019-01-04T07:06:34.767Z,1.77
2019-01-04T07:11:40.305Z,1.77
2019-01-04T07:16:45.431Z,1.82
2019-01-04T07:21:50.586Z,1.82
2019-01-04T07:26:55.953Z,1.89
2019-01-04T07:32:03.299Z,1.96
2019-01-04T07:37:08.693Z,1.96
2019-01-04T07:42:14.347Z,1.97
2019-01-04T07:47:19.374Z,2.03
2019-01-04T07:52:25.073Z,2.17
2019-01-04T07:57:30.479Z,2.23
2019-01-04T08:02:49.776Z,2.13
2019-01-04T08:07:55.212Z,2.10
2019-01-04T08:13:00.890Z,2.12
2019-01-04T08:18:06.253Z,2.09
2019-01-04T08:23:13.401Z,2.17
2019-01-04T08:28:18.441Z,2.16
2019-01-04T08:33:26.365Z,2.24
2019-01-04T08:38:32.779Z,2.21
2019-01-04T08:43:38.449Z,2.16
2019-01-04T08:48:44.421Z,2.15
2019-01-04T08:53:57.442Z,2.16
2019-01-04T08:59:02.992Z,2.14
2019-01-04T09:04:08.545Z,2.20
2019-01-04T09:09:14.105Z,2.21
2019-01-04T09:14:19.335Z,2.32
2019-01-04T09:19:28.197Z,2.39
2019-01-04T09:24:33.881Z,2.46
2019-01-04T09:29:39.021Z,2.48
2019-01-04T09:34:44.151Z,2.45
2019-01-04T09:39:49.281Z,2.40
2019-01-04T09:44:54.565Z,2.36
2019-01-04T09:50:00.211Z,2.43
2019-01-04T09:55:05.555Z,2.49
2019-01-04T10:00:14.073Z,2.53
2019-01-04T10:05:19.253Z,2.65
2019-01-04T10:10:24.465Z,2.73
2019-01-04T10:15:29.513Z,2.75
2019-01-04T10:20:34.667Z,2.77
2019-01-04T10:25:39.769Z,2.77
2019-01-04T10:30:45.143Z,2.74
2019-01-04T10:35:50.251Z,2.77
2019-01-04T10:40:55.423Z,2.88
2019-01-04T10:46:01.037Z,2.92
2019-01-04T10:51:06.202Z,2.94
2019-01-04T10:56:11.416Z,3.02
2019-01-04T11:01:16.518Z,3.00
2019-01-04T11:06:21.706Z,3.04
2019-01-04T11:11:27.054Z,3.05
2019-01-04T11:16:32.839Z,3.13
2019-01-04T11:21:39.485Z,3.21
2019-01-04T11:26:51.928Z,3.24
2019-01-04T11:32:10.333Z,3.23
2019-01-04T11:38:07.713Z,3.27
2019-01-04T11:44:06.748Z,3.19
2019-01-04T11:50:02.304Z,3.19
2019-01-04T11:55:07.327Z,3.24
2019-01-04T12:00:12.989Z,3.21
2019-01-04T12:05:18.411Z,3.25
2019-01-04T12:10:23.511Z,3.18
2019-01-04T12:15:28.593Z,3.10
2019-01-04T12:20:33.959Z,3.05
2019-01-04T12:25:39.012Z,2.99
2019-01-04T12:30:44.111Z,2.97
2019-01-04T12:35:49.440Z,2.92
2019-01-04T12:40:54.696Z,2.85
2019-01-04T12:45:59.979Z,2.88
2019-01-04T12:51:05.733Z,2.94
2019-01-04T12:56:11.209Z,2.94
2019-01-04T13:01:21.575Z,2.95
2019-01-04T13:06:26.693Z,2.98
2019-01-04T13:11:31.933Z,2.97
2019-01-04T13:16:37.511Z,3.00
2019-01-04T13:21:42.961Z,3.03
2019-01-04T13:26:48.461Z,3.08
2019-01-04T13:32:07.069Z,3.10
2019-01-04T13:37:12.246Z,3.09
2019-01-04T13:42:17.841Z,3.12
2019-01-04T13:47:23.319Z,3.14
2019-01-04T13:52:28.947Z,3.18
2019-01-04T13:57:34.124Z,3.22
2019-01-04T14:02:44.346Z,3.22
2019-01-04T14:07:49.633Z,3.19
2019-01-04T14:12:54.801Z,3.18
2019-01-04T14:18:00.774Z,3.21
2019-01-04T14:23:06.579Z,3.22
2019-01-04T14:28:12.181Z,3.24
2019-01-04T14:33:35.339Z,3.22
2019-01-04T14:38:41.015Z,3.27
2019-01-04T14:43:46.373Z,3.31
2019-01-04T14:48:51.647Z,3.26
2019-01-04T14:53:56.749Z,3.25
2019-01-04T14:59:02.072Z,3.26
2019-01-04T15:04:07.504Z,3.28
2019-01-04T15:09:12.727Z,3.29
2019-01-04T15:14:17.917Z,3.24
2019-01-04T15:19:23.073Z,3.18
2019-01-04T15:24:28.428Z,3.17
2019-01-04T15:29:34.622Z,3.10
2019-01-04T15:34:39.900Z,3.09
2019-01-04T15:39:45.178Z,3.10
2019-01-04T15:44:50.393Z,3.04
2019-01-04T15:49:55.553Z,3.04
2019-01-04T15:55:00.725Z,3.01
2019-01-04T16:00:07.856Z,3.12
2019-01-04T16:05:13.134Z,3.10
2019-01-04T16:10:18.726Z,3.03
2019-01-04T16:15:24.206Z,3.04
2019-01-04T16:20:29.490Z,3.04
2019-01-04T16:25:34.523Z,3.04
2019-01-04T16:30:40.158Z,3.06
2019-01-04T16:35:45.334Z,3.07
2019-01-04T16:40:50.582Z,3.10
2019-01-04T16:45:55.737Z,3.10
2019-01-04T16:51:01.887Z,3.09
2019-01-04T16:56:07.230Z,3.09
2019-01-04T17:01:12.498Z,3.11
2019-01-04T17:06:17.764Z,3.10
2019-01-04T17:11:23.113Z,3.21
2019-01-04T17:16:28.811Z,3.18
2019-01-04T17:21:34.106Z,3.54
2019-01-04T17:26:39.800Z,3.85
2019-01-04T17:31:45.317Z,3.93
2019-01-04T17:36:50.780Z,3.78
2019-01-04T17:42:05.272Z,3.64
2019-01-04T17:47:10.838Z,3.58
2019-01-04T17:52:16.198Z,3.50
2019-01-04T17:57:22.004Z,3.43
2019-01-04T18:02:27.200Z,3.47
2019-01-04T18:07:32.800Z,3.42
2019-01-04T18:12:38.768Z,3.49
2019-01-04T18:17:44.680Z,3.49
2019-01-04T18:22:49.918Z,3.49
2019-01-04T18:27:55.279Z,3.51
2019-01-04T18:33:01.018Z,3.48
2019-01-04T18:38:06.298Z,3.52
2019-01-04T18:43:12.289Z,3.59
2019-01-04T18:48:17.748Z,3.54
2019-01-04T18:53:24.005Z,3.57
2019-01-04T18:58:29.578Z,3.59
2019-01-04T19:03:34.841Z,3.58
2019-01-04T19:08:40.231Z,3.63
2019-01-04T19:13:46.240Z,3.73
2019-01-04T19:18:52.790Z,3.85
2019-01-04T19:23:58.112Z,3.96
2019-01-04T19:29:05.200Z,4.08
2019-01-04T19:34:15.720Z,4.17
2019-01-04T19:39:20.863Z,4.26
2019-01-04T19:44:26.218Z,4.25
2019-01-04T19:49:31.838Z,4.25
2019-01-04T19:54:37.750Z,4.33
2019-01-04T19:59:44.396Z,4.41
2019-01-04T20:04:49.809Z,4.43
2019-01-04T20:10:48.630Z,4.39
2019-01-04T20:16:36.132Z,4.42
2019-01-04T20:21:59.210Z,4.48
2019-01-04T20:27:23.608Z,4.51
2019-01-04T20:32:53.678Z,4.47
2019-01-04T20:38:30.070Z,4.50
2019-01-04T20:44:00.896Z,4.40
2019-01-04T20:49:23.969Z,4.40
2019-01-04T20:54:47.658Z,4.33
2019-01-04T21:00:13.216Z,4.27
2019-01-04T21:05:42.824Z,4.20
2019-01-04T21:11:22.339Z,4.15
2019-01-04T21:16:45.432Z,4.24
2019-01-04T21:28:30.438Z,4.11
2019-01-04T21:33:53.654Z,4.05
2019-01-04T21:39:20.844Z,4.10
2019-01-04T21:44:57.078Z,4.14
2019-01-04T21:50:20.430Z,4.21
2019-01-04T21:55:42.958Z,4.21
2019-01-04T22:01:25.896Z,4.19
2019-01-04T22:06:52.802Z,4.14
2019-01-04T22:12:19.840Z,4.10
2019-01-04T22:17:45.668Z,4.19
2019-01-04T22:23:30.150Z,4.19
2019-01-04T22:29:00.546Z,4.19
2019-01-04T22:34:32.906Z,4.15
2019-01-04T22:40:07.702Z,4.17
2019-01-04T22:45:27.395Z,4.19
2019-01-04T22:50:50.361Z,4.22
2019-01-04T22:56:18.640Z,4.22
2019-01-04T23:01:59.780Z,4.23
2019-01-04T23:07:41.980Z,4.21
2019-01-04T23:13:15.887Z,4.27
2019-01-04T23:18:55.296Z,4.24
2019-01-04T23:24:18.264Z,4.30
2019-01-04T23:29:53.458Z,4.35
2019-01-04T23:35:18.409Z,4.33
2019-01-04T23:40:57.780Z,4.36
2019-01-04T23:46:27.370Z,4.33
2019-01-04T23:51:54.288Z,4.31
2019-01-04T23:57:24.167Z,4.35
